| time (UTC) | temp F | wind direction | speed MPH | gust MPH | rain 1hr in | rain 24hr in | rain mn in | humidity % | barometer mb |
| 20260906030105 | 71 | 0.0 | 0.0 | 0.00 | 0.00 | 0.00 | 79 | 1025.2 | |
| 20260906025104 | 72 | 0.0 | 0.0 | 0.00 | 0.00 | 0.00 | 79 | 1025.3 | |
| 20260906024104 | 72 | 314 | 1.0 | 2.0 | 0.00 | 0.00 | 0.00 | 80 | 1025.4 |
| 20260906023104 | 71 | 301 | 2.0 | 3.0 | 0.00 | 0.00 | 0.00 | 83 | 1025.3 |
| 20260906022104 | 72 | 312 | 2.0 | 3.0 | 0.00 | 0.00 | 0.00 | 83 | 1025.4 |
| 20260906021104 | 72 | 297 | 3.0 | 4.0 | 0.00 | 0.00 | 0.00 | 83 | 1025.4 |
| 20260906020104 | 72 | 308 | 3.0 | 6.0 | 0.00 | 0.00 | 0.00 | 84 | 1025.4 |
| 20260906015104 | 72 | 291 | 3.0 | 6.0 | 0.00 | 0.00 | 0.00 | 84 | 1025.4 |
| 20260906014124 | 71 | 315 | 3.0 | 6.0 | 0.00 | 0.00 | 0.00 | 84 | 1025.4 |
| 20260906013107 | 71 | 305 | 3.0 | 4.0 | 0.00 | 0.00 | 0.00 | 84 | 1025.4 |
| 20260906012105 | 71 | 317 | 2.0 | 3.0 | 0.00 | 0.00 | 0.00 | 83 | 1025.6 |
| 20260906011105 | 71 | 302 | 0.0 | 2.0 | 0.00 | 0.00 | 0.00 | 83 | 1025.6 |
| 20260906010127 | 71 | 0.0 | 1.0 | 0.00 | 0.00 | 0.00 | 82 | 1025.5 | |
| 20260906005105 | 72 | 306 | 0.0 | 1.0 | 0.00 | 0.00 | 0.00 | 81 | 1025.4 |
| 20260906004105 | 72 | 307 | 1.0 | 2.0 | 0.00 | 0.00 | 0.00 | 81 | 1025.5 |
| 20260906003144 | 72 | 309 | 1.0 | 3.0 | 0.00 | 0.00 | 0.00 | 80 | 1025.6 |
| 20260906002126 | 72 | 307 | 1.0 | 2.0 | 0.00 | 0.00 | 0.00 | 80 | 1025.6 |
| 20260906001125 | 73 | 302 | 2.0 | 3.0 | 0.00 | 0.00 | 0.00 | 79 | 1025.7 |
| 20260906000104 | 73 | 295 | 2.0 | 3.0 | 0.00 | 0.00 | 0.00 | 78 | 1025.6 |
| 20260905235104 | 73 | 291 | 3.0 | 6.0 | 0.00 | 0.00 | 0.00 | 77 | 1025.9 |
| 20260905234205 | 73 | 308 | 3.0 | 4.0 | 0.00 | 0.00 | 0.00 | 77 | 1025.9 |
| 20260905233104 | 73 | 306 | 2.0 | 3.0 | 0.00 | 0.00 | 0.00 | 77 | 1025.9 |
| 20260905232104 | 73 | 301 | 2.0 | 3.0 | 0.00 | 0.00 | 0.00 | 77 | 1025.8 |
| 20260905231104 | 73 | 314 | 2.0 | 3.0 | 0.00 | 0.00 | 0.00 | 76 | 1025.8 |
| 20260905230104 | 73 | 328 | 3.0 | 4.0 | 0.00 | 0.00 | 0.00 | 76 | 1025.8 |
| 20260905225104 | 73 | 300 | 3.0 | 4.0 | 0.00 | 0.00 | 0.00 | 76 | 1025.9 |
| 20260905224124 | 73 | 308 | 3.0 | 4.0 | 0.00 | 0.00 | 0.00 | 77 | 1026.0 |
| 20260905223104 | 73 | 287 | 3.0 | 4.0 | 0.00 | 0.00 | 0.00 | 77 | 1025.8 |
| 20260905222105 | 73 | 320 | 4.0 | 6.0 | 0.00 | 0.00 | 0.00 | 77 | 1025.9 |
| 20260905221145 | 73 | 303 | 3.0 | 4.0 | 0.00 | 0.00 | 0.00 | 77 | 1025.9 |
| 20260905220105 | 72 | 257 | 2.0 | 3.0 | 0.00 | 0.00 | 0.00 | 80 | 1025.9 |
| 20260905215105 | 72 | 319 | 3.0 | 4.0 | 0.00 | 0.00 | 0.00 | 83 | 1025.8 |
| 20260905214104 | 72 | 310 | 3.0 | 6.0 | 0.00 | 0.00 | 0.00 | 82 | 1025.8 |
| 20260905213124 | 73 | 328 | 3.0 | 4.0 | 0.00 | 0.00 | 0.00 | 81 | 1025.8 |
| 20260905212107 | 73 | 326 | 2.0 | 4.0 | 0.00 | 0.00 | 0.00 | 80 | 1025.7 |
| 20260905211105 | 73 | 296 | 3.0 | 4.0 | 0.00 | 0.00 | 0.00 | 80 | 1025.9 |
| 20260905210105 | 73 | 308 | 4.0 | 6.0 | 0.00 | 0.00 | 0.00 | 79 | 1025.7 |
| 20260905205104 | 73 | 326 | 3.0 | 6.0 | 0.00 | 0.00 | 0.00 | 79 | 1025.7 |
| 20260905204104 | 73 | 297 | 3.0 | 6.0 | 0.00 | 0.00 | 0.00 | 79 | 1025.8 |
| 20260905203124 | 73 | 308 | 3.0 | 4.0 | 0.00 | 0.00 | 0.00 | 79 | 1025.5 |
| 20260905202105 | 73 | 305 | 4.0 | 7.0 | 0.00 | 0.00 | 0.00 | 78 | 1025.8 |
| 20260905201124 | 73 | 306 | 4.0 | 6.0 | 0.00 | 0.00 | 0.00 | 78 | 1025.8 |
| 20260905200105 | 73 | 297 | 5.0 | 7.0 | 0.00 | 0.00 | 0.00 | 77 | 1025.9 |
| 20260905195124 | 74 | 305 | 5.0 | 7.0 | 0.00 | 0.00 | 0.00 | 76 | 1025.7 |
| 20260905194124 | 74 | 308 | 5.0 | 8.0 | 0.00 | 0.00 | 0.00 | 74 | 1025.6 |
| 20260905193104 | 74 | 305 | 5.0 | 8.0 | 0.00 | 0.00 | 0.00 | 74 | 1025.6 |
| 20260905192104 | 74 | 304 | 6.0 | 9.0 | 0.00 | 0.00 | 0.00 | 73 | 1025.6 |
| 20260905191104 | 75 | 319 | 5.0 | 10.0 | 0.00 | 0.00 | 0.00 | 71 | 1025.5 |
| 20260905190105 | 75 | 336 | 5.0 | 8.0 | 0.00 | 0.00 | 0.00 | 69 | 1025.5 |
| 20260905185124 | 76 | 321 | 5.0 | 8.0 | 0.00 | 0.00 | 0.00 | 66 | 1025.5 |
| 20260905184105 | 76 | 292 | 6.0 | 10.0 | 0.00 | 0.00 | 0.00 | 65 | 1025.1 |
| 20260905183104 | 77 | 303 | 5.0 | 7.0 | 0.00 | 0.00 | 0.00 | 64 | 1025.1 |
| 20260905182105 | 77 | 300 | 4.0 | 8.0 | 0.00 | 0.00 | 0.00 | 62 | 1025.2 |
| 20260905181104 | 78 | 291 | 4.0 | 7.0 | 0.00 | 0.00 | 0.00 | 60 | 1025.0 |
| 20260905180105 | 79 | 302 | 5.0 | 7.0 | 0.00 | 0.00 | 0.00 | 56 | 1024.9 |
| 20260905175105 | 79 | 296 | 5.0 | 9.0 | 0.00 | 0.00 | 0.00 | 54 | 1024.9 |
| 20260905174104 | 80 | 271 | 4.0 | 9.0 | 0.00 | 0.00 | 0.00 | 53 | 1024.7 |
| 20260905173104 | 80 | 286 | 3.0 | 6.0 | 0.00 | 0.00 | 0.00 | 53 | 1024.7 |
| 20260905172105 | 81 | 275 | 5.0 | 7.0 | 0.00 | 0.00 | 0.00 | 53 | 1024.6 |
| 20260905171105 | 81 | 291 | 5.0 | 8.0 | 0.00 | 0.00 | 0.00 | 52 | 1024.6 |
| 20260905170104 | 82 | 315 | 4.0 | 7.0 | 0.00 | 0.00 | 0.00 | 51 | 1024.6 |
| 20260905165104 | 82 | 317 | 5.0 | 9.0 | 0.00 | 0.00 | 0.00 | 52 | 1024.7 |
| 20260905164104 | 83 | 338 | 5.0 | 8.0 | 0.00 | 0.00 | 0.00 | 50 | 1024.6 |
| 20260905163104 | 83 | 314 | 6.0 | 9.0 | 0.00 | 0.00 | 0.00 | 49 | 1024.6 |
| 20260905162105 | 84 | 323 | 6.0 | 11.0 | 0.00 | 0.00 | 0.00 | 46 | 1024.6 |
| 20260905161105 | 84 | 260 | 4.0 | 8.0 | 0.00 | 0.00 | 0.00 | 45 | 1024.5 |
| 20260905160105 | 84 | 327 | 5.0 | 8.0 | 0.00 | 0.00 | 0.00 | 46 | 1024.6 |
| 20260905155105 | 84 | 298 | 5.0 | 10.0 | 0.00 | 0.00 | 0.00 | 48 | 1024.8 |
| 20260905154104 | 84 | 280 | 4.0 | 10.0 | 0.00 | 0.00 | 0.00 | 51 | 1024.7 |
| 20260905153124 | 84 | 306 | 2.0 | 9.0 | 0.00 | 0.00 | 0.00 | 50 | 1024.7 |
| 20260905152105 | 84 | 342 | 5.0 | 13.0 | 0.00 | 0.00 | 0.00 | 52 | 1024.8 |
| 20260905151104 | 84 | 308 | 6.0 | 14.0 | 0.00 | 0.00 | 0.00 | 52 | 1024.9 |
| 20260905150105 | 85 | 317 | 7.0 | 15.0 | 0.00 | 0.00 | 0.00 | 50 | 1024.7 |
| 20260905145105 | 85 | 302 | 7.0 | 15.0 | 0.00 | 0.00 | 0.00 | 49 | 1024.7 |
| 20260905144104 | 86 | 320 | 6.0 | 14.0 | 0.00 | 0.00 | 0.00 | 45 | 1024.9 |
| 20260905143104 | 87 | 309 | 4.0 | 13.0 | 0.00 | 0.00 | 0.00 | 44 | 1024.8 |
| 20260905142104 | 87 | 294 | 5.0 | 11.0 | 0.00 | 0.00 | 0.00 | 42 | 1024.8 |
| 20260905141104 | 87 | 350 | 6.0 | 16.0 | 0.00 | 0.00 | 0.00 | 41 | 1024.8 |
| 20260905140104 | 87 | 5 | 4.0 | 10.0 | 0.00 | 0.00 | 0.00 | 39 | 1024.7 |
| 20260905135104 | 88 | 72 | 3.0 | 8.0 | 0.00 | 0.00 | 0.00 | 38 | 1024.9 |
| 20260905134104 | 88 | 293 | 4.0 | 11.0 | 0.00 | 0.00 | 0.00 | 37 | 1024.9 |
| 20260905133104 | 88 | 293 | 6.0 | 10.0 | 0.00 | 0.00 | 0.00 | 35 | 1024.9 |
| 20260905132104 | 88 | 277 | 5.0 | 9.0 | 0.00 | 0.00 | 0.00 | 36 | 1025.1 |
| 20260905131104 | 88 | 321 | 5.0 | 10.0 | 0.00 | 0.00 | 0.00 | 36 | 1025.0 |
| 20260905130104 | 88 | 344 | 7.0 | 11.0 | 0.00 | 0.00 | 0.00 | 37 | 1025.2 |
| 20260905125104 | 88 | 233 | 5.0 | 10.0 | 0.00 | 0.00 | 0.00 | 37 | 1025.2 |
| 20260905124104 | 88 | 230 | 4.0 | 8.0 | 0.00 | 0.00 | 0.00 | 37 | 1025.1 |
| 20260905123127 | 88 | 335 | 2.0 | 9.0 | 0.00 | 0.00 | 0.00 | 35 | 1025.2 |
| 20260905122106 | 88 | 251 | 1.0 | 6.0 | 0.00 | 0.00 | 0.00 | 35 | 1025.3 |
| 20260905121105 | 88 | 332 | 3.0 | 17.0 | 0.00 | 0.00 | 0.00 | 35 | 1025.3 |
| 20260905120105 | 88 | 319 | 4.0 | 10.0 | 0.00 | 0.00 | 0.00 | 35 | 1025.5 |
| 20260905115105 | 89 | 226 | 0.0 | 6.0 | 0.00 | 0.00 | 0.00 | 34 | 1025.5 |
| 20260905114104 | 89 | 93 | 1.0 | 3.0 | 0.00 | 0.00 | 0.00 | 35 | 1025.4 |
| 20260905113104 | 89 | 143 | 0.0 | 1.0 | 0.00 | 0.00 | 0.00 | 34 | 1025.4 |
| 20260905112125 | 89 | 11 | 2.0 | 6.0 | 0.00 | 0.00 | 0.00 | 34 | 1025.6 |
| 20260905111125 | 88 | 289 | 1.0 | 4.0 | 0.00 | 0.00 | 0.00 | 33 | 1025.4 |
| 20260905110125 | 90 | 119 | 0.0 | 3.0 | 0.00 | 0.00 | 0.00 | 33 | 1025.4 |
| 20260905105104 | 91 | 173 | 1.0 | 3.0 | 0.00 | 0.00 | 0.00 | 31 | 1025.5 |
| 20260905104124 | 91 | 142 | 0.0 | 2.0 | 0.00 | 0.00 | 0.00 | 30 | 1025.5 |
| 20260905103104 | 91 | 158 | 0.0 | 2.0 | 0.00 | 0.00 | 0.00 | 30 | 1025.5 |
| 20260905102106 | 91 | 128 | 0.0 | 1.0 | 0.00 | 0.00 | 0.00 | 32 | 1025.6 |
| 20260905101105 | 91 | 166 | 1.0 | 4.0 | 0.00 | 0.00 | 0.00 | 32 | 1025.6 |
| 20260905100105 | 90 | 112 | 0.0 | 1.0 | 0.00 | 0.00 | 0.00 | 35 | 1025.8 |
| 20260905095106 | 89 | 84 | 0.0 | 2.0 | 0.00 | 0.00 | 0.00 | 35 | 1025.7 |
| 20260905094104 | 90 | 118 | 1.0 | 2.0 | 0.00 | 0.00 | 0.00 | 34 | 1025.8 |
| 20260905093124 | 90 | 143 | 1.0 | 3.0 | 0.00 | 0.00 | 0.00 | 31 | 1025.8 |
| 20260905092145 | 89 | 116 | 1.0 | 4.0 | 0.00 | 0.00 | 0.00 | 32 | 1025.8 |
| 20260905091105 | 88 | 137 | 0.0 | 3.0 | 0.00 | 0.00 | 0.00 | 35 | 1025.7 |
| 20260905090105 | 87 | 86 | 0.0 | 2.0 | 0.00 | 0.00 | 0.00 | 38 | 1025.7 |
| 20260905085124 | 88 | 166 | 0.0 | 2.0 | 0.00 | 0.00 | 0.00 | 37 | 1025.8 |
| 20260905084124 | 87 | 0.0 | 1.0 | 0.00 | 0.00 | 0.00 | 40 | 1025.6 | |
| 20260905083104 | 87 | 114 | 0.0 | 1.0 | 0.00 | 0.00 | 0.00 | 41 | 1025.7 |
| 20260905082105 | 87 | 128 | 0.0 | 1.0 | 0.00 | 0.00 | 0.00 | 40 | 1025.6 |
| 20260905081105 | 86 | 136 | 0.0 | 2.0 | 0.00 | 0.00 | 0.00 | 41 | 1025.4 |
| 20260905080105 | 86 | 0.0 | 1.0 | 0.00 | 0.00 | 0.00 | 40 | 1025.3 | |
| 20260905075105 | 85 | 125 | 0.0 | 2.0 | 0.00 | 0.00 | 0.00 | 40 | 1025.3 |
| 20260905074104 | 83 | 141 | 1.0 | 3.0 | 0.00 | 0.00 | 0.00 | 42 | 1025.4 |
| 20260905073104 | 81 | 127 | 0.0 | 3.0 | 0.00 | 0.00 | 0.00 | 43 | 1025.3 |
| 20260905072105 | 81 | 0.0 | 0.0 | 0.00 | 0.00 | 0.00 | 44 | 1025.5 | |
| 20260905071105 | 80 | 145 | 1.0 | 3.0 | 0.00 | 0.00 | 0.00 | 43 | 1025.4 |
| 20260905070104 | 80 | 142 | 2.0 | 3.0 | 0.00 | 0.00 | 0.00 | 45 | 1025.4 |
| 20260905065105 | 79 | 146 | 2.0 | 4.0 | 0.00 | 0.00 | 0.00 | 48 | 1025.3 |
| 20260905064144 | 78 | 148 | 2.0 | 4.0 | 0.00 | 0.00 | 0.00 | 50 | 1025.3 |
| 20260905063104 | 77 | 151 | 2.0 | 4.0 | 0.00 | 0.00 | 0.00 | 51 | 1025.1 |
| 20260905062104 | 78 | 148 | 1.0 | 4.0 | 0.00 | 0.00 | 0.00 | 49 | 1025.1 |
| 20260905061104 | 78 | 148 | 2.0 | 4.0 | 0.00 | 0.00 | 0.00 | 50 | 1025.0 |
| 20260905060104 | 78 | 149 | 3.0 | 6.0 | 0.00 | 0.00 | 0.00 | 50 | 1024.9 |
| 20260905055104 | 78 | 156 | 4.0 | 6.0 | 0.00 | 0.00 | 0.00 | 49 | 1024.9 |
| 20260905054104 | 78 | 140 | 2.0 | 3.0 | 0.00 | 0.00 | 0.00 | 46 | 1024.8 |
| 20260905053104 | 78 | 145 | 1.0 | 3.0 | 0.00 | 0.00 | 0.00 | 46 | 1024.8 |
| 20260905052105 | 77 | 0.0 | 0.0 | 0.00 | 0.00 | 0.00 | 47 | 1024.8 | |
| 20260905051105 | 77 | 0.0 | 0.0 | 0.00 | 0.00 | 0.00 | 46 | 1024.5 | |
| 20260905050225 | 76 | 0.0 | 0.0 | 0.00 | 0.00 | 0.00 | 47 | 1024.4 | |
| 20260905045106 | 76 | 0.0 | 0.0 | 0.00 | 0.00 | 0.00 | 49 | 1024.6 | |
| 20260905044104 | 76 | 0.0 | 0.0 | 0.00 | 0.00 | 0.00 | 51 | 1024.3 | |
| 20260905043104 | 78 | 0.0 | 0.0 | 0.00 | 0.00 | 0.00 | 49 | 1024.3 | |
| 20260905042105 | 77 | 0.0 | 0.0 | 0.00 | 0.00 | 0.00 | 49 | 1024.3 | |
| 20260905041125 | 76 | 0.0 | 0.0 | 0.00 | 0.00 | 0.00 | 51 | 1024.4 | |
| 20260905040104 | 77 | 0.0 | 0.0 | 0.00 | 0.00 | 0.00 | 51 | 1024.4 | |
| 20260905035104 | 78 | 0.0 | 0.0 | 0.00 | 0.00 | 0.00 | 50 | 1024.3 | |
| 20260905034109 | 80 | 0.0 | 0.0 | 0.00 | 0.00 | 0.00 | 47 | 1024.4 | |
| 20260905033104 | 80 | 0.0 | 0.0 | 0.00 | 0.00 | 0.00 | 47 | 1024.3 | |
| 20260905032105 | 80 | 0.0 | 0.0 | 0.00 | 0.00 | 0.00 | 47 | 1024.2 | |
| 20260905031105 | 80 | 0.0 | 0.0 | 0.00 | 0.00 | 0.00 | 47 | 1024.4 |